Time;durP1;ratioP1;P1;durP2;ratioP2;P2;SDS_P1;SDS_P2;PMS_P1;PMS_P2;Temp;Humidity;BMP_temperature;BMP_pressure;BME280_temperature;BME280_humidity;BME280_pressure;Samples;Min_cycle;Max_cycle;Signal;HPM_P1;HPM_P2
2021/07/11 00:02:19;;;;;;;14.50;11.77;;;19.40;93.70;;;;;;4786419;29;20501;-77
2021/07/11 00:04:45;;;;;;;11.25;8.95;;;19.40;93.80;;;;;;4770791;29;20085;-77
2021/07/11 00:07:14;;;;;;;11.77;9.93;;;19.40;93.90;;;;;;4774379;29;20038;-77
2021/07/11 00:09:42;;;;;;;11.38;9.23;;;19.40;94.00;;;;;;4771466;29;20061;-77
2021/07/11 00:12:09;;;;;;;9.63;8.65;;;19.40;94.10;;;;;;4805925;29;20053;-77
2021/07/11 00:14:36;;;;;;;13.27;10.02;;;19.30;94.10;;;;;;4791147;29;20039;-77
2021/07/11 00:17:02;;;;;;;9.63;7.65;;;19.40;94.30;;;;;;4790796;29;20061;-77
2021/07/11 00:19:29;;;;;;;9.20;7.95;;;19.40;94.30;;;;;;4790620;29;20069;-77
2021/07/11 00:21:55;;;;;;;11.82;8.90;;;19.40;94.30;;;;;;4790828;29;20057;-77
2021/07/11 00:24:22;;;;;;;11.82;9.38;;;19.40;94.30;;;;;;4805730;29;20043;-77
2021/07/11 00:26:48;;;;;;;12.10;9.93;;;19.40;94.40;;;;;;4802035;29;20038;-77
2021/07/11 00:29:14;;;;;;;10.18;8.88;;;19.40;94.50;;;;;;4769918;29;20059;-77
2021/07/11 00:31:41;;;;;;;12.07;9.68;;;19.40;94.60;;;;;;4788665;29;20054;-76
2021/07/11 00:34:09;;;;;;;13.27;9.77;;;19.40;94.70;;;;;;4774197;29;20054;-77
2021/07/11 00:36:36;;;;;;;10.65;9.52;;;19.40;94.80;;;;;;4776675;29;20051;-77
2021/07/11 00:39:08;;;;;;;12.55;9.63;;;19.40;94.80;;;;;;4773899;29;20865;-77
2021/07/11 00:41:39;;;;;;;12.60;9.57;;;19.40;94.90;;;;;;4774367;29;20062;-77
2021/07/11 00:44:08;;;;;;;11.07;9.40;;;19.40;95.00;;;;;;4791394;29;20058;-77
2021/07/11 00:46:44;;;;;;;12.20;8.70;;;19.40;95.00;;;;;;4791484;29;20045;-77
2021/07/11 00:49:11;;;;;;;10.55;8.38;;;19.40;95.00;;;;;;4787971;29;20058;-77
2021/07/11 00:51:39;;;;;;;13.02;10.40;;;19.40;95.10;;;;;;4760180;29;20141;-77
2021/07/11 00:54:06;;;;;;;11.23;10.00;;;19.40;95.30;;;;;;4774806;29;20050;-77
2021/07/11 00:56:32;;;;;;;10.93;9.75;;;19.40;95.30;;;;;;4808135;29;20451;-77
2021/07/11 00:58:59;;;;;;;10.80;9.02;;;19.40;95.40;;;;;;4773732;29;20054;-77
2021/07/11 01:01:38;;;;;;;11.60;9.57;;;19.40;95.50;;;;;;4790192;29;20049;-78
2021/07/11 01:04:12;;;;;;;9.98;7.88;;;19.40;95.70;;;;;;4799093;29;20038;-77
2021/07/11 01:06:43;;;;;;;8.80;7.90;;;19.40;95.70;;;;;;4790129;29;20031;-77
2021/07/11 01:09:15;;;;;;;;;;;19.40;95.70;;;;;;4775549;29;20058;-78
2021/07/11 01:12:00;;;;;;;11.35;9.13;;;19.40;95.70;;;;;;4790252;29;20285;-77
2021/07/11 01:14:32;;;;;;;13.93;8.73;;;19.40;95.70;;;;;;4773189;29;20577;-77
2021/07/11 01:16:59;;;;;;;10.43;9.10;;;19.40;95.80;;;;;;4774395;29;20054;-77
2021/07/11 01:19:59;;;;;;;12.60;9.43;;;19.40;95.80;;;;;;4764134;29;21061;-77
2021/07/11 01:22:31;;;;;;;13.60;9.50;;;19.40;95.90;;;;;;4804854;29;20035;-77
2021/07/11 01:25:09;;;;;;;11.98;10.13;;;19.40;95.80;;;;;;4771654;29;20042;-77
2021/07/11 01:27:36;;;;;;;13.57;10.23;;;19.40;95.90;;;;;;4787611;29;20053;-77
2021/07/11 01:30:08;;;;;;;11.63;9.77;;;19.30;95.90;;;;;;4783968;29;20073;-77
2021/07/11 01:32:39;;;;;;;14.18;11.50;;;19.30;96.00;;;;;;4789225;29;20353;-77
2021/07/11 01:35:07;;;;;;;11.88;10.20;;;19.30;96.00;;;;;;4791781;29;20043;-77
2021/07/11 01:37:35;;;;;;;13.82;11.07;;;19.30;96.00;;;;;;4790933;29;20043;-77
2021/07/11 01:40:06;;;;;;;11.23;10.05;;;19.30;96.00;;;;;;4788172;29;20423;-78
2021/07/11 01:42:35;;;;;;;10.88;9.15;;;19.30;96.00;;;;;;4774597;29;20046;-78
2021/07/11 01:45:04;;;;;;;10.13;8.90;;;19.30;96.10;;;;;;4797767;29;20376;-77
2021/07/11 01:47:31;;;;;;;11.77;9.93;;;19.30;96.20;;;;;;4791534;29;20035;-77
2021/07/11 01:50:01;;;;;;;14.57;11.20;;;19.30;96.30;;;;;;4789938;29;20053;-77
2021/07/11 01:52:28;;;;;;;14.60;10.32;;;19.20;96.40;;;;;;4790066;29;20035;-77
2021/07/11 01:54:55;;;;;;;14.55;10.52;;;19.20;96.40;;;;;;4774276;29;20756;-77
2021/07/11 01:57:25;;;;;;;14.00;11.15;;;19.20;96.40;;;;;;4789719;29;20046;-77
2021/07/11 01:59:54;;;;;;;11.98;10.82;;;19.20;96.50;;;;;;4774002;29;20062;-77
2021/07/11 02:02:46;;;;;;;10.93;9.50;;;19.20;96.50;;;;;;4793106;29;20035;-77
2021/07/11 02:05:36;;;;;;;11.63;10.40;;;19.20;96.50;;;;;;4777615;29;20051;-77
2021/07/11 02:08:06;;;;;;;12.57;10.75;;;19.20;96.50;;;;;;4758680;29;20066;-77
2021/07/11 02:10:37;;;;;;;11.73;9.48;;;19.10;96.50;;;;;;4775356;29;20042;-77
2021/07/11 02:13:28;;;;;;;11.75;10.55;;;19.20;96.60;;;;;;4778068;29;20142;-77
2021/07/11 02:16:06;;;;;;;13.85;11.73;;;19.20;96.80;;;;;;4785671;29;20506;-77
2021/07/11 02:18:39;;;;;;;11.25;10.15;;;19.20;96.90;;;;;;4771553;29;20047;-77
2021/07/11 02:21:06;;;;;;;16.73;13.18;;;19.10;97.00;;;;;;4771430;29;20051;-77
2021/07/11 02:23:36;;;;;;;16.13;12.02;;;19.10;97.30;;;;;;4789701;29;20039;-77
2021/07/11 02:26:07;;;;;;;13.80;12.10;;;19.00;97.40;;;;;;4790630;29;20499;-77
2021/07/11 02:28:39;;;;;;;14.15;12.35;;;19.00;97.60;;;;;;4784980;29;20514;-77
2021/07/11 02:31:11;;;;;;;15.00;13.07;;;18.90;97.80;;;;;;4802106;29;20067;-77
2021/07/11 02:33:40;;;;;;;15.80;13.70;;;18.90;98.20;;;;;;4805917;29;20042;-77
2021/07/11 02:36:19;;;;;;;15.88;13.85;;;18.80;98.70;;;;;;4774763;29;20110;-76
2021/07/11 02:39:11;;;;;;;15.38;13.68;;;18.70;98.90;;;;;;4799550;29;20050;-76
2021/07/11 02:41:47;;;;;;;16.63;14.85;;;18.60;99.30;;;;;;4789015;29;20061;-76
2021/07/11 02:44:15;;;;;;;20.55;16.23;;;18.50;99.90;;;;;;4786767;29;20053;-76
2021/07/11 02:46:49;;;;;;;16.20;14.40;;;18.30;99.90;;;;;;4775005;29;20042;-76
2021/07/11 02:49:21;;;;;;;15.70;13.35;;;18.20;99.90;;;;;;4802351;29;20038;-76
2021/07/11 02:51:55;;;;;;;16.98;13.70;;;18.10;99.90;;;;;;4771620;29;20061;-77
2021/07/11 02:54:28;;;;;;;16.20;14.45;;;18.00;99.90;;;;;;4787386;29;20407;-76
2021/07/11 02:57:00;;;;;;;19.30;15.70;;;17.90;99.90;;;;;;4804923;29;20038;-76
2021/07/11 02:59:30;;;;;;;16.38;14.43;;;17.90;99.90;;;;;;4785779;29;20038;-75
2021/07/11 03:02:05;;;;;;;18.02;15.32;;;17.80;99.90;;;;;;4805162;29;20042;-76
2021/07/11 03:04:44;;;;;;;18.42;15.80;;;17.80;99.90;;;;;;4787258;29;20065;-76
2021/07/11 03:07:14;;;;;;;16.58;14.73;;;17.70;99.90;;;;;;4774155;29;20529;-75
2021/07/11 03:09:41;;;;;;;19.02;16.50;;;17.70;99.90;;;;;;4802654;29;20046;-75
2021/07/11 03:12:15;;;;;;;21.60;17.50;;;17.70;99.90;;;;;;4772850;29;20058;-76
2021/07/11 03:14:46;;;;;;;18.90;16.52;;;17.70;99.90;;;;;;4802914;29;20035;-75
2021/07/11 03:17:14;;;;;;;18.98;15.32;;;17.70;99.90;;;;;;4800243;29;20039;-75
2021/07/11 03:19:42;;;;;;;20.15;15.18;;;17.80;99.90;;;;;;4785041;29;20038;-75
2021/07/11 03:22:12;;;;;;;19.05;16.45;;;17.70;99.90;;;;;;4803712;29;20046;-75
2021/07/11 03:24:40;;;;;;;20.13;17.40;;;17.70;99.90;;;;;;4787233;29;20038;-75
2021/07/11 03:27:10;;;;;;;20.92;18.38;;;17.70;99.90;;;;;;4787180;29;20499;-75
2021/07/11 03:29:51;;;;;;;24.02;18.85;;;17.70;99.90;;;;;;4790555;29;20062;-75
2021/07/11 03:32:19;;;;;;;19.20;17.20;;;17.70;99.90;;;;;;4787535;29;20038;-75
2021/07/11 03:34:48;;;;;;;21.52;18.20;;;17.60;99.90;;;;;;4772776;29;20414;-75
2021/07/11 03:37:22;;;;;;;20.45;18.25;;;17.60;99.90;;;;;;4788859;29;20038;-75
2021/07/11 03:39:51;;;;;;;19.75;17.38;;;17.70;99.90;;;;;;4787681;29;20042;-75
2021/07/11 03:42:27;;;;;;;22.13;18.50;;;17.70;99.90;;;;;;4787268;29;20046;-75
2021/07/11 03:44:58;;;;;;;22.92;18.45;;;17.70;99.90;;;;;;4792476;29;20043;-75
2021/07/11 03:47:32;;;;;;;19.40;17.05;;;17.70;99.90;;;;;;4793648;29;20050;-75
2021/07/11 03:49:59;;;;;;;21.00;18.58;;;17.70;99.90;;;;;;4803976;29;20043;-75
2021/07/11 03:52:28;;;;;;;20.00;16.83;;;17.70;99.90;;;;;;4793180;29;20051;-75
2021/07/11 03:54:58;;;;;;;20.42;16.58;;;17.60;99.90;;;;;;4805987;29;20042;-75
2021/07/11 03:57:27;;;;;;;22.58;17.50;;;17.70;99.90;;;;;;4803755;29;20032;-75
2021/07/11 03:59:55;;;;;;;24.30;17.73;;;17.60;99.90;;;;;;4803726;29;20066;-76
2021/07/11 04:02:27;;;;;;;22.02;18.95;;;17.60;99.90;;;;;;4786536;29;20864;-75
2021/07/11 04:04:56;;;;;;;22.17;19.45;;;17.60;99.90;;;;;;4809592;29;20042;-75
2021/07/11 04:07:23;;;;;;;21.05;17.83;;;17.60;99.90;;;;;;4807985;29;20041;-76
2021/07/11 04:09:53;;;;;;;18.38;16.35;;;17.60;99.90;;;;;;4788564;29;20039;-75
2021/07/11 04:12:19;;;;;;;19.98;16.67;;;17.60;99.90;;;;;;4807899;29;20039;-75
2021/07/11 04:14:46;;;;;;;22.00;17.55;;;17.60;99.90;;;;;;4792623;29;20113;-75
2021/07/11 04:17:13;;;;;;;21.27;18.05;;;17.60;99.90;;;;;;4775214;29;20512;-76
2021/07/11 04:19:42;;;;;;;21.00;18.73;;;17.50;99.90;;;;;;4808265;29;20046;-76
2021/07/11 04:22:15;;;;;;;23.67;19.20;;;17.50;99.90;;;;;;4808013;29;20042;-75
2021/07/11 04:24:43;;;;;;;19.98;17.48;;;17.50;99.90;;;;;;4792436;29;20062;-76
2021/07/11 04:27:11;;;;;;;22.98;18.85;;;17.50;99.90;;;;;;4806842;29;20049;-76
2021/07/11 04:29:38;;;;;;;23.08;20.08;;;17.50;99.90;;;;;;4791900;29;20039;-76
2021/07/11 04:32:05;;;;;;;24.42;21.80;;;17.50;99.90;;;;;;4808416;29;20054;-76
2021/07/11 04:34:34;;;;;;;25.77;21.63;;;17.60;99.90;;;;;;4806565;29;20051;-76
2021/07/11 04:37:03;;;;;;;29.45;24.33;;;17.60;99.90;;;;;;4806962;29;20042;-76
2021/07/11 04:39:29;;;;;;;30.50;22.63;;;17.50;99.90;;;;;;4759085;29;20475;-76
2021/07/11 04:41:56;;;;;;;29.70;24.48;;;17.50;99.90;;;;;;4786604;29;20046;-76
2021/07/11 04:44:24;;;;;;;25.63;22.02;;;17.50;99.90;;;;;;4792743;29;20049;-76
2021/07/11 04:46:51;;;;;;;29.95;23.48;;;17.50;99.90;;;;;;4806661;29;20505;-75
2021/07/11 04:49:17;;;;;;;27.15;22.48;;;17.50;99.90;;;;;;4802745;29;20047;-76
2021/07/11 04:51:44;;;;;;;28.23;23.83;;;17.50;99.90;;;;;;4806936;29;20046;-76
2021/07/11 04:54:11;;;;;;;26.98;22.15;;;17.50;99.90;;;;;;4786132;29;20050;-76
2021/07/11 04:56:38;;;;;;;26.17;22.17;;;17.60;99.90;;;;;;4801482;29;20055;-75
2021/07/11 04:59:05;;;;;;;28.05;22.83;;;17.60;99.90;;;;;;4784833;29;20518;-75
2021/07/11 05:01:31;;;;;;;30.83;24.08;;;17.60;99.90;;;;;;4787575;29;20051;-75
2021/07/11 05:03:58;;;;;;;27.25;23.27;;;17.60;99.90;;;;;;4787519;29;20046;-76
2021/07/11 05:06:24;;;;;;;32.20;25.83;;;17.60;99.90;;;;;;4805113;29;20407;-76
2021/07/11 05:08:50;;;;;;;24.42;21.77;;;17.60;99.90;;;;;;4783926;29;20083;-76
2021/07/11 05:11:17;;;;;;;30.30;24.60;;;17.70;99.90;;;;;;4787078;29;20041;-76
2021/07/11 05:13:44;;;;;;;29.33;24.80;;;17.70;99.90;;;;;;4775459;29;20048;-76
2021/07/11 05:16:10;;;;;;;28.27;24.42;;;17.80;99.90;;;;;;4789944;29;20057;-76
2021/07/11 05:18:37;;;;;;;30.60;24.98;;;17.80;99.90;;;;;;4789791;29;20035;-75
2021/07/11 05:21:03;;;;;;;28.08;25.08;;;17.80;99.90;;;;;;4805139;29;20038;-75
2021/07/11 05:23:30;;;;;;;30.23;25.33;;;17.80;99.90;;;;;;4788669;29;20049;-75
2021/07/11 05:25:56;;;;;;;34.75;27.75;;;17.80;99.90;;;;;;4804930;29;20047;-79
2021/07/11 05:28:23;;;;;;;27.23;23.95;;;17.80;99.90;;;;;;4788065;29;20039;-79
2021/07/11 05:30:49;;;;;;;30.30;25.02;;;17.80;99.90;;;;;;4804743;29;20061;-79
2021/07/11 05:33:16;;;;;;;28.45;24.77;;;17.90;99.90;;;;;;4806131;29;20031;-79
2021/07/11 05:35:42;;;;;;;31.52;26.73;;;17.90;99.90;;;;;;4757190;29;20491;-79
2021/07/11 05:38:09;;;;;;;28.63;25.60;;;17.90;99.90;;;;;;4785385;29;20050;-79
2021/07/11 05:40:35;;;;;;;28.67;24.83;;;18.00;99.90;;;;;;4804601;29;20063;-75
2021/07/11 05:43:02;;;;;;;26.70;23.15;;;18.10;99.90;;;;;;4786930;29;20875;-79
2021/07/11 05:45:28;;;;;;;30.13;24.30;;;18.10;99.90;;;;;;4786837;29;20051;-75
2021/07/11 05:47:54;;;;;;;27.23;23.30;;;18.20;99.90;;;;;;4772296;29;20046;-75
2021/07/11 05:50:21;;;;;;;29.40;25.30;;;18.20;99.90;;;;;;4806427;29;20475;-75
2021/07/11 05:52:47;;;;;;;28.73;25.08;;;18.20;99.90;;;;;;4788407;29;20053;-75
2021/07/11 05:55:14;;;;;;;26.45;23.63;;;18.20;99.90;;;;;;4806568;29;20042;-79
2021/07/11 05:57:40;;;;;;;24.98;22.08;;;18.20;99.90;;;;;;4802118;29;20396;-79
2021/07/11 06:00:08;;;;;;;25.17;22.50;;;18.30;99.90;;;;;;4788854;29;20893;-75
2021/07/11 06:02:39;;;;;;;27.60;23.90;;;18.40;99.90;;;;;;4806245;29;20046;-75
2021/07/11 06:05:06;;;;;;;29.23;26.00;;;18.40;99.90;;;;;;4789454;29;20046;-74
2021/07/11 06:07:33;;;;;;;26.70;23.58;;;18.50;99.90;;;;;;4788718;29;20065;-74
2021/07/11 06:10:00;;;;;;;27.40;23.88;;;18.50;99.90;;;;;;4787394;29;20059;-74
2021/07/11 06:12:28;;;;;;;28.20;24.80;;;18.60;99.90;;;;;;4788091;29;20038;-74
2021/07/11 06:14:57;;;;;;;26.08;23.27;;;18.60;99.90;;;;;;4789644;29;20034;-74
2021/07/11 06:17:26;;;;;;;26.30;23.23;;;18.70;99.90;;;;;;4789639;29;20050;-74
2021/07/11 06:19:53;;;;;;;26.02;23.08;;;18.80;99.90;;;;;;4806291;29;20043;-74
2021/07/11 06:22:19;;;;;;;24.55;21.95;;;18.80;99.90;;;;;;4787795;29;20499;-75
2021/07/11 06:24:45;;;;;;;24.90;22.25;;;18.90;99.90;;;;;;4787359;29;20034;-76
2021/07/11 06:27:12;;;;;;;26.88;23.88;;;19.00;99.90;;;;;;4804952;29;20047;-75
2021/07/11 06:29:38;;;;;;;26.73;22.38;;;19.00;99.90;;;;;;4804742;29;20038;-76
2021/07/11 06:32:05;;;;;;;26.88;23.15;;;19.00;99.90;;;;;;4805096;29;20240;-75
2021/07/11 06:34:32;;;;;;;25.55;22.67;;;19.00;99.90;;;;;;4805036;29;20345;-78
2021/07/11 06:36:58;;;;;;;28.55;25.55;;;19.00;99.90;;;;;;4784754;29;20515;-75
2021/07/11 06:39:24;;;;;;;25.13;22.63;;;19.00;99.90;;;;;;4770116;29;20043;-76
2021/07/11 06:41:51;;;;;;;22.90;19.95;;;19.10;99.90;;;;;;4756113;29;20062;-75
2021/07/11 06:44:18;;;;;;;26.90;23.17;;;19.20;99.90;;;;;;4783263;29;20051;-75
2021/07/11 06:46:45;;;;;;;25.48;22.67;;;19.20;99.90;;;;;;4782681;29;20051;-75
2021/07/11 06:49:11;;;;;;;24.13;21.52;;;19.40;99.90;;;;;;4795996;29;20053;-76
2021/07/11 06:51:38;;;;;;;24.10;21.50;;;19.50;99.90;;;;;;4779645;29;20046;-76
2021/07/11 06:54:04;;;;;;;21.48;19.27;;;19.70;99.90;;;;;;4783052;29;20058;-75
2021/07/11 06:56:31;;;;;;;25.73;22.95;;;19.90;99.90;;;;;;4798240;29;20027;-76
2021/07/11 06:58:57;;;;;;;23.90;20.75;;;20.10;99.90;;;;;;4747869;29;20424;-75
2021/07/11 07:01:23;;;;;;;21.88;19.58;;;20.30;99.90;;;;;;4800415;29;20051;-75
2021/07/11 07:03:50;;;;;;;24.67;22.08;;;20.50;99.90;;;;;;4770409;29;21001;-76
2021/07/11 07:06:16;;;;;;;25.02;22.42;;;20.70;99.90;;;;;;4792180;29;20058;-76
2021/07/11 07:08:42;;;;;;;23.92;21.38;;;20.80;99.90;;;;;;4793922;29;20456;-75
2021/07/11 07:11:09;;;;;;;25.50;20.45;;;20.90;99.90;;;;;;4783793;29;20039;-75
2021/07/11 07:13:35;;;;;;;27.38;23.60;;;21.10;99.90;;;;;;4790661;29;20045;-75
2021/07/11 07:16:02;;;;;;;23.17;20.65;;;21.20;99.90;;;;;;4800813;29;20043;-75
2021/07/11 07:18:28;;;;;;;22.73;20.33;;;21.30;99.90;;;;;;4800287;29;20042;-75
2021/07/11 07:20:54;;;;;;;21.77;19.20;;;21.40;99.90;;;;;;4802853;29;20051;-75
2021/07/11 07:23:21;;;;;;;23.80;21.08;;;21.60;99.90;;;;;;4788609;29;20038;-74
2021/07/11 07:25:47;;;;;;;21.73;19.48;;;21.70;99.90;;;;;;4798597;29;20050;-74
2021/07/11 07:28:14;;;;;;;27.95;22.70;;;21.90;99.90;;;;;;4802504;29;20038;-74
2021/07/11 07:30:40;;;;;;;24.13;20.25;;;22.10;99.90;;;;;;4801110;29;20055;-75
2021/07/11 07:33:09;;;;;;;23.20;20.83;;;22.20;99.90;;;;;;4803328;29;20043;-75
2021/07/11 07:35:35;;;;;;;22.58;20.08;;;22.40;99.90;;;;;;4804723;29;20050;-74
2021/07/11 07:38:02;;;;;;;22.35;20.15;;;22.50;99.90;;;;;;4787595;29;20046;-75
2021/07/11 07:40:28;;;;;;;23.00;20.63;;;22.60;99.90;;;;;;4784941;29;20471;-75
2021/07/11 07:42:55;;;;;;;21.98;19.60;;;22.70;99.90;;;;;;4800763;29;20396;-75
2021/07/11 07:45:21;;;;;;;23.95;21.38;;;22.50;99.90;;;;;;4754020;29;20067;-74
2021/07/11 07:47:47;;;;;;;20.30;17.92;;;22.40;99.90;;;;;;4797511;29;20046;-74
2021/07/11 07:50:15;;;;;;;21.80;19.45;;;22.30;99.90;;;;;;4783829;29;20046;-75
2021/07/11 07:52:41;;;;;;;23.95;20.30;;;22.20;99.90;;;;;;4781015;29;20031;-74
2021/07/11 07:55:09;;;;;;;23.80;20.10;;;22.10;99.90;;;;;;4796357;29;20479;-74
2021/07/11 07:57:36;;;;;;;22.15;19.85;;;22.10;99.90;;;;;;4756475;29;20146;-74
2021/07/11 08:00:10;;;;;;;20.98;18.80;;;22.00;99.90;;;;;;4800489;29;20038;-74
2021/07/11 08:02:40;;;;;;;21.10;18.33;;;22.00;99.90;;;;;;4788103;29;20042;-74
2021/07/11 08:05:07;;;;;;;21.85;19.52;;;21.90;99.90;;;;;;4788966;29;20053;-75
2021/07/11 08:07:34;;;;;;;22.00;19.58;;;21.80;99.90;;;;;;4802594;29;20054;-75
2021/07/11 08:10:00;;;;;;;20.23;18.02;;;21.70;99.90;;;;;;4770388;29;20062;-74
2021/07/11 08:12:26;;;;;;;23.40;20.42;;;21.50;99.90;;;;;;4802938;29;20039;-74
2021/07/11 08:14:53;;;;;;;23.77;21.25;;;21.40;99.90;;;;;;4773490;29;20051;-74
2021/07/11 08:17:19;;;;;;;23.48;21.05;;;21.40;99.90;;;;;;4789620;29;20042;-75
2021/07/11 08:19:46;;;;;;;26.83;23.35;;;21.20;99.90;;;;;;4772814;29;20046;-75
2021/07/11 08:22:12;;;;;;;23.90;21.20;;;21.10;99.90;;;;;;4786452;29;20054;-75
2021/07/11 08:24:38;;;;;;;23.75;20.38;;;21.00;99.90;;;;;;4802980;29;20054;-76
2021/07/11 08:27:05;;;;;;;23.23;20.73;;;20.90;99.90;;;;;;4759585;29;20074;-75
2021/07/11 08:29:32;;;;;;;25.10;22.48;;;20.80;99.90;;;;;;4798664;29;20762;-76
2021/07/11 08:31:59;;;;;;;23.30;20.33;;;20.80;99.90;;;;;;4785836;29;20058;-76
2021/07/11 08:34:25;;;;;;;22.15;19.85;;;20.70;99.90;;;;;;4801534;29;20042;-75
2021/07/11 08:36:58;;;;;;;27.60;24.08;;;20.60;99.90;;;;;;4792730;29;20075;-75
2021/07/11 08:39:26;;;;;;;26.02;23.30;;;20.50;99.90;;;;;;4807264;29;20399;-75
2021/07/11 08:41:55;;;;;;;26.52;23.75;;;20.40;99.90;;;;;;4776911;29;20066;-75
2021/07/11 08:44:23;;;;;;;26.25;23.48;;;20.30;99.90;;;;;;4809906;29;20046;-75
2021/07/11 08:46:49;;;;;;;29.10;26.00;;;20.10;99.90;;;;;;4806655;29;20050;-75
2021/07/11 08:49:16;;;;;;;21.65;19.35;;;20.00;99.90;;;;;;4790314;29;20058;-75
2021/07/11 08:51:43;;;;;;;30.77;27.45;;;19.80;99.90;;;;;;4790593;29;20042;-75
2021/07/11 08:54:11;;;;;;;28.38;24.83;;;19.70;99.90;;;;;;4808883;29;20038;-75
2021/07/11 08:56:37;;;;;;;25.30;22.70;;;19.60;99.90;;;;;;4803524;29;20054;-73
2021/07/11 08:59:04;;;;;;;25.98;23.17;;;19.60;99.90;;;;;;4786287;29;20035;-73
2021/07/11 09:01:30;;;;;;;27.02;24.02;;;19.60;99.90;;;;;;4773321;29;21402;-76
2021/07/11 09:04:08;;;;;;;31.83;26.45;;;19.50;99.90;;;;;;4789617;29;20050;-76
2021/07/11 09:06:55;;;;;;;34.25;30.10;;;19.60;99.90;;;;;;4774176;29;20055;-76
2021/07/11 09:09:27;;;;;;;31.77;28.38;;;19.60;99.90;;;;;;4799284;29;20045;-78
2021/07/11 09:12:01;;;;;;;30.88;26.77;;;19.70;99.90;;;;;;4772498;29;20064;-78
2021/07/11 09:14:30;;;;;;;31.10;26.55;;;19.70;99.90;;;;;;4804657;29;20470;-78
2021/07/11 09:16:58;;;;;;;33.85;27.77;;;19.80;99.90;;;;;;4789512;29;20035;-78
2021/07/11 09:19:30;;;;;;;28.70;25.60;;;19.90;99.90;;;;;;4805735;29;20031;-78
2021/07/11 09:22:00;;;;;;;28.10;25.13;;;20.00;99.90;;;;;;4786357;29;20051;-78
2021/07/11 09:24:27;;;;;;;26.40;22.83;;;20.10;99.90;;;;;;4790290;29;20045;-78
2021/07/11 09:26:56;;;;;;;30.90;26.33;;;20.30;99.90;;;;;;4806798;29;20510;-78
2021/07/11 09:29:31;;;;;;;26.60;23.80;;;20.40;99.90;;;;;;4782574;29;20039;-78
2021/07/11 09:31:59;;;;;;;29.55;25.95;;;20.60;99.90;;;;;;4781623;29;20073;-79
2021/07/11 09:34:27;;;;;;;24.15;21.48;;;20.70;99.90;;;;;;4783564;29;20050;-80
2021/07/11 09:37:07;;;;;;;28.00;24.98;;;21.00;99.90;;;;;;4786293;29;20061;-80
2021/07/11 09:39:34;;;;;;;26.08;21.85;;;21.20;99.90;;;;;;4804548;29;20037;-78
2021/07/11 09:42:05;;;;;;;27.42;23.23;;;21.50;99.90;;;;;;4787140;29;20037;-79
2021/07/11 09:44:43;;;;;;;25.23;22.52;;;21.80;99.90;;;;;;4782906;29;20054;-76
2021/07/11 09:47:24;;;;;;;22.15;19.67;;;22.10;99.90;;;;;;4802841;29;20041;-75
2021/07/11 09:50:05;;;;;;;24.33;20.80;;;22.50;99.90;;;;;;4786618;29;20518;-76
2021/07/11 09:52:33;;;;;;;22.58;20.17;;;22.90;99.90;;;;;;4801883;29;20050;-75
2021/07/11 09:55:16;;;;;;;22.30;20.00;;;23.30;99.90;;;;;;4787732;29;20045;-75
2021/07/11 09:57:45;;;;;;;21.10;17.73;;;23.60;99.90;;;;;;4778998;29;20372;-75
2021/07/11 10:00:15;;;;;;;21.30;19.10;;;23.90;99.90;;;;;;4801641;29;20027;-76
2021/07/11 10:02:44;;;;;;;20.67;18.57;;;24.10;99.90;;;;;;4783732;29;20070;-74
2021/07/11 10:05:13;;;;;;;15.27;13.77;;;24.30;99.90;;;;;;4787747;29;20287;-74
2021/07/11 10:07:40;;;;;;;21.95;19.65;;;24.50;99.90;;;;;;4784338;29;20138;-75
2021/07/11 10:10:10;;;;;;;22.00;19.80;;;24.60;99.90;;;;;;4772433;29;20058;-75
2021/07/11 10:12:38;;;;;;;20.40;18.27;;;24.50;99.10;;;;;;4783454;29;20500;-76
2021/07/11 10:15:11;;;;;;;14.68;13.18;;;24.20;99.40;;;;;;4772225;29;20400;-76
2021/07/11 10:17:49;;;;;;;19.10;17.20;;;24.00;99.60;;;;;;4807042;29;20034;-76
2021/07/11 10:20:21;;;;;;;17.58;15.65;;;23.90;99.50;;;;;;4796484;29;20042;-80
2021/07/11 10:22:50;;;;;;;19.13;17.08;;;23.90;99.60;;;;;;4801599;29;20567;-75
2021/07/11 10:25:20;;;;;;;18.67;16.77;;;23.90;99.10;;;;;;4795417;29;20069;-81
2021/07/11 10:27:49;;;;;;;18.95;16.25;;;23.70;98.90;;;;;;4797584;29;20049;-78
2021/07/11 10:30:16;;;;;;;19.88;17.45;;;23.60;99.00;;;;;;4768640;29;20423;-77
2021/07/11 10:32:43;;;;;;;21.13;18.67;;;23.60;99.10;;;;;;4782947;29;20038;-77
2021/07/11 10:35:12;;;;;;;19.45;17.63;;;23.60;99.30;;;;;;4785849;29;20042;-77
2021/07/11 10:37:51;;;;;;;17.63;15.93;;;23.60;99.30;;;;;;4782523;29;20491;-77
2021/07/11 10:40:29;;;;;;;19.40;17.38;;;23.80;99.10;;;;;;4781472;29;20054;-77
2021/07/11 10:42:56;;;;;;;20.13;18.13;;;24.00;99.00;;;;;;4781602;29;20054;-78
2021/07/11 10:45:23;;;;;;;15.65;14.15;;;24.10;98.50;;;;;;4801563;29;20041;-77
2021/07/11 10:47:50;;;;;;;21.90;19.75;;;24.30;98.40;;;;;;4786798;29;20065;-78
2021/07/11 10:50:28;;;;;;;19.27;17.27;;;24.40;97.90;;;;;;4787824;29;20491;-76
2021/07/11 10:52:57;;;;;;;16.83;15.02;;;24.60;97.80;;;;;;4783779;29;20046;-76
2021/07/11 10:55:24;;;;;;;16.02;14.35;;;25.00;97.70;;;;;;4800955;29;20573;-74
2021/07/11 10:57:51;;;;;;;20.38;17.67;;;25.60;97.40;;;;;;4801461;29;20041;-73
2021/07/11 11:00:28;;;;;;;16.92;15.25;;;25.80;96.40;;;;;;4802647;29;20045;-73
2021/07/11 11:02:55;;;;;;;16.95;15.25;;;25.70;95.70;;;;;;4801531;29;20426;-73
2021/07/11 11:05:26;;;;;;;14.50;13.18;;;25.50;95.40;;;;;;4803818;29;20506;-74
2021/07/11 11:08:08;;;;;;;18.77;16.95;;;25.30;95.30;;;;;;4789377;29;20035;-74
2021/07/11 11:10:37;;;;;;;16.92;15.30;;;25.00;95.30;;;;;;4781722;29;20039;-74
2021/07/11 11:13:08;;;;;;;17.48;15.68;;;24.70;95.50;;;;;;4786608;29;20038;-74
2021/07/11 11:15:46;;;;;;;20.83;18.02;;;24.70;95.60;;;;;;4782825;29;20411;-74
2021/07/11 11:18:30;;;;;;;16.42;14.63;;;24.80;95.50;;;;;;4770169;29;20403;-73
2021/07/11 11:21:01;;;;;;;17.80;16.05;;;24.90;94.70;;;;;;4790098;29;20051;-74
2021/07/11 11:23:36;;;;;;;16.70;14.93;;;24.90;94.50;;;;;;4766244;29;20050;-73
2021/07/11 11:26:03;;;;;;;11.70;10.60;;;25.10;94.70;;;;;;4798845;29;20045;-75
2021/07/11 11:28:33;;;;;;;11.68;10.57;;;25.40;94.30;;;;;;4799714;29;20096;-73
2021/07/11 11:31:18;;;;;;;13.52;12.23;;;26.00;94.20;;;;;;4798761;29;20066;-73
2021/07/11 11:34:12;;;;;;;13.23;11.85;;;26.70;93.10;;;;;;4784186;29;20042;-74
2021/07/11 11:36:41;;;;;;;11.93;10.80;;;27.20;92.40;;;;;;4795579;29;20510;-74
2021/07/11 11:39:08;;;;;;;10.77;9.68;;;27.80;92.30;;;;;;4781708;29;20035;-74
2021/07/11 11:41:37;;;;;;;12.75;11.45;;;28.30;91.20;;;;;;4780910;29;20055;-74
2021/07/11 11:44:16;;;;;;;10.77;9.77;;;28.80;90.00;;;;;;4781679;29;20060;-74
2021/07/11 11:46:48;;;;;;;8.70;7.57;;;29.20;85.90;;;;;;4783365;29;20041;-74
2021/07/11 11:49:20;;;;;;;9.07;8.18;;;29.50;84.20;;;;;;4784689;29;20136;-73
2021/07/11 11:51:47;;;;;;;9.93;8.93;;;29.40;82.60;;;;;;4798918;29;20046;-74
2021/07/11 11:54:46;;;;;;;8.73;7.93;;;29.30;82.00;;;;;;4794370;29;20034;-74
2021/07/11 11:57:13;;;;;;;7.78;7.07;;;29.80;80.80;;;;;;4776895;29;20444;-74
2021/07/11 11:59:39;;;;;;;8.63;7.82;;;30.20;79.20;;;;;;4765132;29;20113;-75
2021/07/11 12:02:09;;;;;;;8.48;7.78;;;30.50;77.40;;;;;;4797274;29;20487;-75
2021/07/11 12:04:35;;;;;;;6.20;5.60;;;30.40;77.10;;;;;;4796125;29;20035;-74
2021/07/11 12:07:05;;;;;;;8.00;7.30;;;30.10;77.20;;;;;;4797205;29;20050;-74
2021/07/11 12:09:33;;;;;;;9.05;8.25;;;30.00;75.50;;;;;;4767975;29;20043;-75
2021/07/11 12:12:05;;;;;;;5.45;4.95;;;30.10;74.80;;;;;;4802476;29;20054;-75
2021/07/11 12:14:34;;;;;;;7.25;6.65;;;29.90;74.70;;;;;;4784422;29;20054;-75
2021/07/11 12:17:03;;;;;;;8.27;7.45;;;29.70;74.40;;;;;;4810457;29;20054;-75
2021/07/11 12:19:44;;;;;;;6.68;5.53;;;29.50;74.70;;;;;;4774480;29;20038;-75
2021/07/11 12:22:19;;;;;;;7.07;6.38;;;29.30;75.90;;;;;;4788208;29;20050;-74
2021/07/11 12:24:48;;;;;;;7.65;6.95;;;29.10;75.50;;;;;;4804034;29;20119;-75
2021/07/11 12:27:19;;;;;;;7.35;6.65;;;28.70;74.10;;;;;;4804054;29;20395;-74
2021/07/11 12:29:46;;;;;;;8.05;7.35;;;28.40;74.50;;;;;;4774970;29;20043;-74
2021/07/11 12:32:12;;;;;;;8.10;7.35;;;28.10;74.70;;;;;;4787218;29;20065;-74
2021/07/11 12:34:39;;;;;;;6.20;5.65;;;27.90;75.70;;;;;;4806010;29;20061;-74
2021/07/11 12:37:10;;;;;;;6.90;6.40;;;27.80;76.50;;;;;;4771619;29;20047;-76
2021/07/11 12:39:43;;;;;;;6.75;5.95;;;27.70;77.20;;;;;;4805627;29;20039;-74
2021/07/11 12:42:19;;;;;;;7.18;6.18;;;27.70;76.50;;;;;;4784694;29;20047;-74
2021/07/11 12:44:47;;;;;;;7.65;6.95;;;27.70;76.00;;;;;;4770412;29;20050;-74